sensor_id;sensor_type;location;lat;lon;timestamp;temperature;humidity
14577;DHT22;7375;46.072;14.470;2022-07-17T00:00:09;25.60;60.80
14577;DHT22;7375;46.072;14.470;2022-07-17T00:02:36;25.60;60.80
14577;DHT22;7375;46.072;14.470;2022-07-17T00:05:04;25.50;60.80
14577;DHT22;7375;46.072;14.470;2022-07-17T00:07:31;25.60;60.90
14577;DHT22;7375;46.072;14.470;2022-07-17T00:10:00;25.50;60.80
14577;DHT22;7375;46.072;14.470;2022-07-17T00:12:30;25.60;60.90
14577;DHT22;7375;46.072;14.470;2022-07-17T00:14:57;25.50;60.90
14577;DHT22;7375;46.072;14.470;2022-07-17T00:17:27;25.50;60.90
14577;DHT22;7375;46.072;14.470;2022-07-17T00:19:54;25.50;60.90
14577;DHT22;7375;46.072;14.470;2022-07-17T00:22:21;25.50;60.90
14577;DHT22;7375;46.072;14.470;2022-07-17T00:24:49;25.50;60.90
14577;DHT22;7375;46.072;14.470;2022-07-17T00:27:17;25.50;60.90
14577;DHT22;7375;46.072;14.470;2022-07-17T00:29:47;25.50;61.00
14577;DHT22;7375;46.072;14.470;2022-07-17T00:32:14;25.50;61.00
14577;DHT22;7375;46.072;14.470;2022-07-17T00:34:44;25.50;61.00
14577;DHT22;7375;46.072;14.470;2022-07-17T00:37:11;25.50;61.00
14577;DHT22;7375;46.072;14.470;2022-07-17T00:39:38;25.40;61.00
14577;DHT22;7375;46.072;14.470;2022-07-17T00:42:09;25.50;61.10
14577;DHT22;7375;46.072;14.470;2022-07-17T00:44:38;25.40;61.00
14577;DHT22;7375;46.072;14.470;2022-07-17T00:47:09;25.40;61.00
14577;DHT22;7375;46.072;14.470;2022-07-17T00:49:36;25.50;61.20
14577;DHT22;7375;46.072;14.470;2022-07-17T00:52:04;25.40;61.10
14577;DHT22;7375;46.072;14.470;2022-07-17T00:54:31;25.40;61.10
14577;DHT22;7375;46.072;14.470;2022-07-17T00:57:01;25.40;61.70
14577;DHT22;7375;46.072;14.470;2022-07-17T00:59:28;25.40;61.10
14577;DHT22;7375;46.072;14.470;2022-07-17T01:02:00;25.40;61.10
14577;DHT22;7375;46.072;14.470;2022-07-17T01:04:27;25.40;61.20
14577;DHT22;7375;46.072;14.470;2022-07-17T01:06:54;25.40;61.20
14577;DHT22;7375;46.072;14.470;2022-07-17T01:09:21;25.40;61.20
14577;DHT22;7375;46.072;14.470;2022-07-17T01:11:48;25.40;61.30
14577;DHT22;7375;46.072;14.470;2022-07-17T01:14:16;25.40;61.20
14577;DHT22;7375;46.072;14.470;2022-07-17T01:16:43;25.40;61.30
14577;DHT22;7375;46.072;14.470;2022-07-17T01:19:11;25.40;61.30
14577;DHT22;7375;46.072;14.470;2022-07-17T01:21:40;25.40;61.40
14577;DHT22;7375;46.072;14.470;2022-07-17T01:24:08;25.40;61.40
14577;DHT22;7375;46.072;14.470;2022-07-17T01:26:35;25.40;61.40
14577;DHT22;7375;46.072;14.470;2022-07-17T01:29:02;25.40;61.40
14577;DHT22;7375;46.072;14.470;2022-07-17T01:31:30;25.40;61.40
14577;DHT22;7375;46.072;14.470;2022-07-17T01:33:57;25.30;61.40
14577;DHT22;7375;46.072;14.470;2022-07-17T01:36:25;25.30;61.40
14577;DHT22;7375;46.072;14.470;2022-07-17T01:38:54;25.40;61.50
14577;DHT22;7375;46.072;14.470;2022-07-17T01:41:22;25.30;61.40
14577;DHT22;7375;46.072;14.470;2022-07-17T01:43:49;25.40;61.50
14577;DHT22;7375;46.072;14.470;2022-07-17T01:46:19;25.30;61.40
14577;DHT22;7375;46.072;14.470;2022-07-17T01:48:50;25.30;61.50
14577;DHT22;7375;46.072;14.470;2022-07-17T01:51:17;25.30;61.50
14577;DHT22;7375;46.072;14.470;2022-07-17T01:53:44;25.30;61.50
14577;DHT22;7375;46.072;14.470;2022-07-17T01:56:13;25.30;61.60
14577;DHT22;7375;46.072;14.470;2022-07-17T01:58:40;25.30;61.60
14577;DHT22;7375;46.072;14.470;2022-07-17T02:01:07;25.30;61.60
14577;DHT22;7375;46.072;14.470;2022-07-17T02:03:34;25.20;61.50
14577;DHT22;7375;46.072;14.470;2022-07-17T02:06:04;25.20;61.60
14577;DHT22;7375;46.072;14.470;2022-07-17T02:08:31;25.30;61.70
14577;DHT22;7375;46.072;14.470;2022-07-17T02:10:58;25.20;61.60
14577;DHT22;7375;46.072;14.470;2022-07-17T02:13:27;25.20;61.70
14577;DHT22;7375;46.072;14.470;2022-07-17T02:15:54;25.20;61.70
14577;DHT22;7375;46.072;14.470;2022-07-17T02:18:21;25.20;61.70
14577;DHT22;7375;46.072;14.470;2022-07-17T02:20:49;25.20;61.70
14577;DHT22;7375;46.072;14.470;2022-07-17T02:23:16;25.20;61.80
14577;DHT22;7375;46.072;14.470;2022-07-17T02:25:43;25.20;61.80
14577;DHT22;7375;46.072;14.470;2022-07-17T02:28:10;25.20;61.80
14577;DHT22;7375;46.072;14.470;2022-07-17T02:30:40;25.20;61.80
14577;DHT22;7375;46.072;14.470;2022-07-17T02:33:07;25.20;61.80
14577;DHT22;7375;46.072;14.470;2022-07-17T02:35:35;25.20;61.90
14577;DHT22;7375;46.072;14.470;2022-07-17T02:38:05;25.20;61.90
14577;DHT22;7375;46.072;14.470;2022-07-17T02:40:33;25.20;61.90
14577;DHT22;7375;46.072;14.470;2022-07-17T02:43:03;25.20;61.90
14577;DHT22;7375;46.072;14.470;2022-07-17T02:45:33;25.10;61.80
14577;DHT22;7375;46.072;14.470;2022-07-17T02:48:02;25.20;61.90
14577;DHT22;7375;46.072;14.470;2022-07-17T02:50:30;25.10;61.90
14577;DHT22;7375;46.072;14.470;2022-07-17T02:52:58;25.20;62.00
14577;DHT22;7375;46.072;14.470;2022-07-17T02:55:25;25.20;62.00
14577;DHT22;7375;46.072;14.470;2022-07-17T02:57:51;25.20;62.00
14577;DHT22;7375;46.072;14.470;2022-07-17T03:00:18;25.20;62.00
14577;DHT22;7375;46.072;14.470;2022-07-17T03:02:48;25.10;61.90
14577;DHT22;7375;46.072;14.470;2022-07-17T03:05:17;25.20;62.00
14577;DHT22;7375;46.072;14.470;2022-07-17T03:07:44;25.20;62.10
14577;DHT22;7375;46.072;14.470;2022-07-17T03:10:11;25.10;62.00
14577;DHT22;7375;46.072;14.470;2022-07-17T03:12:38;25.20;62.10
14577;DHT22;7375;46.072;14.470;2022-07-17T03:15:05;25.10;62.00
14577;DHT22;7375;46.072;14.470;2022-07-17T03:17:32;25.10;62.00
14577;DHT22;7375;46.072;14.470;2022-07-17T03:19:59;25.10;62.00
14577;DHT22;7375;46.072;14.470;2022-07-17T03:22:27;25.10;62.00
14577;DHT22;7375;46.072;14.470;2022-07-17T03:24:54;25.10;62.00
14577;DHT22;7375;46.072;14.470;2022-07-17T03:27:23;25.10;62.00
14577;DHT22;7375;46.072;14.470;2022-07-17T03:29:50;25.10;62.00
14577;DHT22;7375;46.072;14.470;2022-07-17T03:32:18;25.10;62.10
14577;DHT22;7375;46.072;14.470;2022-07-17T03:34:45;25.10;62.10
14577;DHT22;7375;46.072;14.470;2022-07-17T03:37:12;25.10;62.10
14577;DHT22;7375;46.072;14.470;2022-07-17T03:39:40;25.10;62.10
14577;DHT22;7375;46.072;14.470;2022-07-17T03:42:07;25.10;62.10
14577;DHT22;7375;46.072;14.470;2022-07-17T03:44:34;25.10;62.10
14577;DHT22;7375;46.072;14.470;2022-07-17T03:47:01;25.10;62.10
14577;DHT22;7375;46.072;14.470;2022-07-17T03:49:27;25.10;62.20
14577;DHT22;7375;46.072;14.470;2022-07-17T03:51:54;25.10;62.20
14577;DHT22;7375;46.072;14.470;2022-07-17T03:54:21;25.10;62.10
14577;DHT22;7375;46.072;14.470;2022-07-17T03:56:49;25.10;62.20
14577;DHT22;7375;46.072;14.470;2022-07-17T03:59:16;25.10;62.20
14577;DHT22;7375;46.072;14.470;2022-07-17T04:01:43;25.10;62.20
14577;DHT22;7375;46.072;14.470;2022-07-17T04:04:09;25.10;62.20
14577;DHT22;7375;46.072;14.470;2022-07-17T04:06:36;25.10;62.20
14577;DHT22;7375;46.072;14.470;2022-07-17T04:09:03;25.10;62.20
14577;DHT22;7375;46.072;14.470;2022-07-17T04:11:30;25.00;62.20
14577;DHT22;7375;46.072;14.470;2022-07-17T04:14:01;25.10;62.20
14577;DHT22;7375;46.072;14.470;2022-07-17T04:16:28;25.10;62.20
14577;DHT22;7375;46.072;14.470;2022-07-17T04:18:55;25.00;62.20
14577;DHT22;7375;46.072;14.470;2022-07-17T04:21:24;25.10;62.20
14577;DHT22;7375;46.072;14.470;2022-07-17T04:23:51;25.00;62.20
14577;DHT22;7375;46.072;14.470;2022-07-17T04:26:18;25.10;62.20
14577;DHT22;7375;46.072;14.470;2022-07-17T04:28:45;25.10;62.20
14577;DHT22;7375;46.072;14.470;2022-07-17T04:31:13;25.10;62.20
14577;DHT22;7375;46.072;14.470;2022-07-17T04:33:40;25.10;62.20
14577;DHT22;7375;46.072;14.470;2022-07-17T04:36:06;25.00;62.10
14577;DHT22;7375;46.072;14.470;2022-07-17T04:38:33;25.00;62.20
14577;DHT22;7375;46.072;14.470;2022-07-17T04:41:00;25.00;62.20
14577;DHT22;7375;46.072;14.470;2022-07-17T04:43:27;25.10;62.20
14577;DHT22;7375;46.072;14.470;2022-07-17T04:45:56;25.10;62.20
14577;DHT22;7375;46.072;14.470;2022-07-17T04:48:27;25.10;62.20
14577;DHT22;7375;46.072;14.470;2022-07-17T04:50:54;25.10;62.10
14577;DHT22;7375;46.072;14.470;2022-07-17T04:53:21;25.10;62.20
14577;DHT22;7375;46.072;14.470;2022-07-17T04:55:47;25.10;62.10
14577;DHT22;7375;46.072;14.470;2022-07-17T04:58:14;25.10;62.10
14577;DHT22;7375;46.072;14.470;2022-07-17T05:00:41;25.10;62.10
14577;DHT22;7375;46.072;14.470;2022-07-17T05:03:08;25.10;62.10
14577;DHT22;7375;46.072;14.470;2022-07-17T05:05:36;25.10;62.00
14577;DHT22;7375;46.072;14.470;2022-07-17T05:08:05;25.10;62.00
14577;DHT22;7375;46.072;14.470;2022-07-17T05:10:32;25.20;62.00
14577;DHT22;7375;46.072;14.470;2022-07-17T05:13:01;25.20;62.00
14577;DHT22;7375;46.072;14.470;2022-07-17T05:15:28;25.20;61.90
14577;DHT22;7375;46.072;14.470;2022-07-17T05:17:55;25.20;61.90
14577;DHT22;7375;46.072;14.470;2022-07-17T05:20:22;25.20;61.80
14577;DHT22;7375;46.072;14.470;2022-07-17T05:22:50;25.20;61.80
14577;DHT22;7375;46.072;14.470;2022-07-17T05:25:17;25.20;61.70
14577;DHT22;7375;46.072;14.470;2022-07-17T05:27:43;25.20;61.60
14577;DHT22;7375;46.072;14.470;2022-07-17T05:30:10;25.30;61.70
14577;DHT22;7375;46.072;14.470;2022-07-17T05:32:37;25.30;61.60
14577;DHT22;7375;46.072;14.470;2022-07-17T05:35:04;25.40;61.40
14577;DHT22;7375;46.072;14.470;2022-07-17T05:37:33;25.60;61.00
14577;DHT22;7375;46.072;14.470;2022-07-17T05:40:02;25.80;60.50
14577;DHT22;7375;46.072;14.470;2022-07-17T05:42:28;25.90;60.00
14577;DHT22;7375;46.072;14.470;2022-07-17T05:44:55;26.10;59.80
14577;DHT22;7375;46.072;14.470;2022-07-17T05:47:24;26.10;59.60
14577;DHT22;7375;46.072;14.470;2022-07-17T05:49:51;26.20;59.50
14577;DHT22;7375;46.072;14.470;2022-07-17T05:52:17;26.30;59.30
14577;DHT22;7375;46.072;14.470;2022-07-17T05:54:44;26.50;59.10
14577;DHT22;7375;46.072;14.470;2022-07-17T05:57:12;26.60;58.80
14577;DHT22;7375;46.072;14.470;2022-07-17T05:59:39;26.80;58.60
14577;DHT22;7375;46.072;14.470;2022-07-17T06:02:06;27.00;58.00
14577;DHT22;7375;46.072;14.470;2022-07-17T06:04:35;27.20;57.40
14577;DHT22;7375;46.072;14.470;2022-07-17T06:07:02;27.40;57.00
14577;DHT22;7375;46.072;14.470;2022-07-17T06:09:29;27.50;56.60
14577;DHT22;7375;46.072;14.470;2022-07-17T06:11:56;27.60;56.40
14577;DHT22;7375;46.072;14.470;2022-07-17T06:14:24;27.70;55.80
14577;DHT22;7375;46.072;14.470;2022-07-17T06:16:51;27.80;55.60
14577;DHT22;7375;46.072;14.470;2022-07-17T06:19:17;27.90;55.30
14577;DHT22;7375;46.072;14.470;2022-07-17T06:21:44;28.00;55.20
14577;DHT22;7375;46.072;14.470;2022-07-17T06:24:11;28.10;55.00
14577;DHT22;7375;46.072;14.470;2022-07-17T06:26:38;28.10;54.70
14577;DHT22;7375;46.072;14.470;2022-07-17T06:29:05;28.20;54.60
14577;DHT22;7375;46.072;14.470;2022-07-17T06:31:33;28.30;54.40
14577;DHT22;7375;46.072;14.470;2022-07-17T06:33:59;28.40;54.20
14577;DHT22;7375;46.072;14.470;2022-07-17T06:36:26;28.20;54.50
14577;DHT22;7375;46.072;14.470;2022-07-17T06:38:53;28.30;54.30
14577;DHT22;7375;46.072;14.470;2022-07-17T06:41:20;28.30;54.20
14577;DHT22;7375;46.072;14.470;2022-07-17T06:43:46;28.30;54.10
14577;DHT22;7375;46.072;14.470;2022-07-17T06:46:13;28.20;54.40
14577;DHT22;7375;46.072;14.470;2022-07-17T06:48:41;28.30;54.30
14577;DHT22;7375;46.072;14.470;2022-07-17T06:51:08;28.50;53.90
14577;DHT22;7375;46.072;14.470;2022-07-17T06:53:35;28.70;53.50
14577;DHT22;7375;46.072;14.470;2022-07-17T06:56:01;28.70;53.30
14577;DHT22;7375;46.072;14.470;2022-07-17T06:58:28;28.90;53.20
14577;DHT22;7375;46.072;14.470;2022-07-17T07:00:55;28.90;52.80
14577;DHT22;7375;46.072;14.470;2022-07-17T07:03:22;29.00;52.80
14577;DHT22;7375;46.072;14.470;2022-07-17T07:05:50;29.00;52.60
14577;DHT22;7375;46.072;14.470;2022-07-17T07:08:17;29.10;52.50
14577;DHT22;7375;46.072;14.470;2022-07-17T07:10:44;29.20;52.40
14577;DHT22;7375;46.072;14.470;2022-07-17T07:13:11;29.20;52.40
14577;DHT22;7375;46.072;14.470;2022-07-17T07:15:39;29.30;52.20
14577;DHT22;7375;46.072;14.470;2022-07-17T07:18:06;29.40;52.10
14577;DHT22;7375;46.072;14.470;2022-07-17T07:20:33;29.40;52.00
14577;DHT22;7375;46.072;14.470;2022-07-17T07:23:01;29.50;51.80
14577;DHT22;7375;46.072;14.470;2022-07-17T07:25:27;29.50;51.70
14577;DHT22;7375;46.072;14.470;2022-07-17T07:27:54;29.60;51.70
14577;DHT22;7375;46.072;14.470;2022-07-17T07:30:21;29.60;51.60
14577;DHT22;7375;46.072;14.470;2022-07-17T07:32:48;29.60;51.50
14577;DHT22;7375;46.072;14.470;2022-07-17T07:35:15;29.70;51.40
14577;DHT22;7375;46.072;14.470;2022-07-17T07:37:44;29.70;51.30
14577;DHT22;7375;46.072;14.470;2022-07-17T07:40:15;29.70;51.30
14577;DHT22;7375;46.072;14.470;2022-07-17T07:42:42;29.70;51.20
14577;DHT22;7375;46.072;14.470;2022-07-17T07:45:08;29.70;51.20
14577;DHT22;7375;46.072;14.470;2022-07-17T07:47:45;29.70;51.10
14577;DHT22;7375;46.072;14.470;2022-07-17T07:50:14;29.70;51.10
14577;DHT22;7375;46.072;14.470;2022-07-17T07:52:41;29.80;51.20
14577;DHT22;7375;46.072;14.470;2022-07-17T07:55:08;29.70;51.10
14577;DHT22;7375;46.072;14.470;2022-07-17T07:57:36;29.70;51.20
14577;DHT22;7375;46.072;14.470;2022-07-17T08:00:07;29.70;51.20
14577;DHT22;7375;46.072;14.470;2022-07-17T08:02:34;29.70;51.30
14577;DHT22;7375;46.072;14.470;2022-07-17T08:05:01;29.70;51.40
14577;DHT22;7375;46.072;14.470;2022-07-17T08:07:28;29.70;51.40
14577;DHT22;7375;46.072;14.470;2022-07-17T08:09:55;29.60;51.40
14577;DHT22;7375;46.072;14.470;2022-07-17T08:12:22;29.60;51.50
14577;DHT22;7375;46.072;14.470;2022-07-17T08:14:50;29.60;51.60
14577;DHT22;7375;46.072;14.470;2022-07-17T08:17:17;29.40;52.30
14577;DHT22;7375;46.072;14.470;2022-07-17T08:19:44;29.40;51.80
14577;DHT22;7375;46.072;14.470;2022-07-17T08:22:11;29.40;51.90
14577;DHT22;7375;46.072;14.470;2022-07-17T08:24:38;29.40;51.90
14577;DHT22;7375;46.072;14.470;2022-07-17T08:27:05;29.40;52.00
14577;DHT22;7375;46.072;14.470;2022-07-17T08:29:32;29.40;52.10
14577;DHT22;7375;46.072;14.470;2022-07-17T08:32:00;29.30;52.10
14577;DHT22;7375;46.072;14.470;2022-07-17T08:34:27;29.30;52.10
14577;DHT22;7375;46.072;14.470;2022-07-17T08:36:56;29.30;52.20
14577;DHT22;7375;46.072;14.470;2022-07-17T08:39:23;29.30;52.30
14577;DHT22;7375;46.072;14.470;2022-07-17T08:41:50;29.20;52.30
14577;DHT22;7375;46.072;14.470;2022-07-17T08:44:20;29.30;52.30
14577;DHT22;7375;46.072;14.470;2022-07-17T08:46:46;29.30;52.20
14577;DHT22;7375;46.072;14.470;2022-07-17T08:49:20;29.30;52.30
14577;DHT22;7375;46.072;14.470;2022-07-17T08:51:48;29.20;52.30
14577;DHT22;7375;46.072;14.470;2022-07-17T08:54:17;29.20;52.30
14577;DHT22;7375;46.072;14.470;2022-07-17T08:56:44;29.20;52.30
14577;DHT22;7375;46.072;14.470;2022-07-17T08:59:11;29.20;52.40
14577;DHT22;7375;46.072;14.470;2022-07-17T09:01:38;29.10;52.40
14577;DHT22;7375;46.072;14.470;2022-07-17T09:04:05;29.10;52.50
14577;DHT22;7375;46.072;14.470;2022-07-17T09:06:34;29.10;52.60
14577;DHT22;7375;46.072;14.470;2022-07-17T09:09:02;29.00;52.60
14577;DHT22;7375;46.072;14.470;2022-07-17T09:11:29;29.00;52.70
14577;DHT22;7375;46.072;14.470;2022-07-17T09:13:56;29.00;52.70
14577;DHT22;7375;46.072;14.470;2022-07-17T09:16:23;29.00;52.70
14577;DHT22;7375;46.072;14.470;2022-07-17T09:18:51;29.00;52.80
14577;DHT22;7375;46.072;14.470;2022-07-17T09:21:19;29.00;52.80
14577;DHT22;7375;46.072;14.470;2022-07-17T09:23:58;29.00;52.80
14577;DHT22;7375;46.072;14.470;2022-07-17T09:26:25;28.90;52.80
14577;DHT22;7375;46.072;14.470;2022-07-17T09:28:52;28.90;52.80
14577;DHT22;7375;46.072;14.470;2022-07-17T09:31:23;28.90;52.80
14577;DHT22;7375;46.072;14.470;2022-07-17T09:33:50;28.90;52.80
14577;DHT22;7375;46.072;14.470;2022-07-17T09:36:17;28.90;52.90
14577;DHT22;7375;46.072;14.470;2022-07-17T09:38:49;28.90;52.90
14577;DHT22;7375;46.072;14.470;2022-07-17T09:41:20;28.90;52.90
14577;DHT22;7375;46.072;14.470;2022-07-17T09:43:49;28.90;53.00
14577;DHT22;7375;46.072;14.470;2022-07-17T09:46:21;28.90;53.10
14577;DHT22;7375;46.072;14.470;2022-07-17T09:48:52;28.80;53.70
14577;DHT22;7375;46.072;14.470;2022-07-17T09:51:20;28.80;53.10
14577;DHT22;7375;46.072;14.470;2022-07-17T09:53:48;28.80;53.10
14577;DHT22;7375;46.072;14.470;2022-07-17T09:56:20;28.80;53.20
14577;DHT22;7375;46.072;14.470;2022-07-17T09:58:49;28.70;53.30
14577;DHT22;7375;46.072;14.470;2022-07-17T10:01:19;28.70;53.40
14577;DHT22;7375;46.072;14.470;2022-07-17T10:03:46;28.60;53.50
14577;DHT22;7375;46.072;14.470;2022-07-17T10:06:14;28.60;53.50
14577;DHT22;7375;46.072;14.470;2022-07-17T10:08:41;28.60;54.30
14577;DHT22;7375;46.072;14.470;2022-07-17T10:11:09;28.50;53.70
14577;DHT22;7375;46.072;14.470;2022-07-17T10:13:38;28.50;53.80
14577;DHT22;7375;46.072;14.470;2022-07-17T10:16:05;28.50;54.00
14577;DHT22;7375;46.072;14.470;2022-07-17T10:18:36;28.40;54.00
14577;DHT22;7375;46.072;14.470;2022-07-17T10:21:11;28.40;54.10
14577;DHT22;7375;46.072;14.470;2022-07-17T10:23:39;28.30;54.10
14577;DHT22;7375;46.072;14.470;2022-07-17T10:26:06;28.30;54.30
14577;DHT22;7375;46.072;14.470;2022-07-17T10:28:41;28.30;54.40
14577;DHT22;7375;46.072;14.470;2022-07-17T10:31:08;28.20;54.40
14577;DHT22;7375;46.072;14.470;2022-07-17T10:33:38;28.20;54.50
14577;DHT22;7375;46.072;14.470;2022-07-17T10:36:05;28.20;54.50
14577;DHT22;7375;46.072;14.470;2022-07-17T10:38:40;28.20;54.70
14577;DHT22;7375;46.072;14.470;2022-07-17T10:41:07;28.10;54.70
14577;DHT22;7375;46.072;14.470;2022-07-17T10:43:42;28.10;54.70
14577;DHT22;7375;46.072;14.470;2022-07-17T10:46:09;28.10;54.80
14577;DHT22;7375;46.072;14.470;2022-07-17T10:48:35;28.00;54.90
14577;DHT22;7375;46.072;14.470;2022-07-17T10:51:05;28.00;54.90
14577;DHT22;7375;46.072;14.470;2022-07-17T10:53:36;28.00;55.00
14577;DHT22;7375;46.072;14.470;2022-07-17T10:56:06;28.00;55.10
14577;DHT22;7375;46.072;14.470;2022-07-17T10:58:34;27.90;55.10
14577;DHT22;7375;46.072;14.470;2022-07-17T11:01:05;27.90;55.20
14577;DHT22;7375;46.072;14.470;2022-07-17T11:03:35;27.90;55.30
14577;DHT22;7375;46.072;14.470;2022-07-17T11:06:06;27.80;55.30
14577;DHT22;7375;46.072;14.470;2022-07-17T11:08:34;27.80;55.40
14577;DHT22;7375;46.072;14.470;2022-07-17T11:11:01;27.80;55.40
14577;DHT22;7375;46.072;14.470;2022-07-17T11:13:28;27.80;55.40
14577;DHT22;7375;46.072;14.470;2022-07-17T11:15:55;27.80;55.50
14577;DHT22;7375;46.072;14.470;2022-07-17T11:18:23;27.70;55.40
14577;DHT22;7375;46.072;14.470;2022-07-17T11:20:54;27.70;55.60
14577;DHT22;7375;46.072;14.470;2022-07-17T11:23:22;27.70;55.60
14577;DHT22;7375;46.072;14.470;2022-07-17T11:25:56;27.70;55.70
14577;DHT22;7375;46.072;14.470;2022-07-17T11:28:27;27.70;55.70
14577;DHT22;7375;46.072;14.470;2022-07-17T11:30:54;27.60;55.70
14577;DHT22;7375;46.072;14.470;2022-07-17T11:33:21;27.60;55.70
14577;DHT22;7375;46.072;14.470;2022-07-17T11:35:52;27.60;55.80
14577;DHT22;7375;46.072;14.470;2022-07-17T11:38:23;27.60;55.90
14577;DHT22;7375;46.072;14.470;2022-07-17T11:40:50;27.60;56.00
14577;DHT22;7375;46.072;14.470;2022-07-17T11:43:17;27.50;55.90
14577;DHT22;7375;46.072;14.470;2022-07-17T11:45:44;27.50;56.00
14577;DHT22;7375;46.072;14.470;2022-07-17T11:48:13;27.50;56.10
14577;DHT22;7375;46.072;14.470;2022-07-17T11:50:54;27.50;56.10
14577;DHT22;7375;46.072;14.470;2022-07-17T11:53:30;27.50;56.10
14577;DHT22;7375;46.072;14.470;2022-07-17T11:55:57;27.50;56.20
14577;DHT22;7375;46.072;14.470;2022-07-17T11:58:24;27.40;56.20
14577;DHT22;7375;46.072;14.470;2022-07-17T12:00:59;27.40;56.20
14577;DHT22;7375;46.072;14.470;2022-07-17T12:03:25;27.40;56.30
14577;DHT22;7375;46.072;14.470;2022-07-17T12:05:54;27.40;56.30
14577;DHT22;7375;46.072;14.470;2022-07-17T12:08:22;27.40;56.40
14577;DHT22;7375;46.072;14.470;2022-07-17T12:10:59;27.40;56.40
14577;DHT22;7375;46.072;14.470;2022-07-17T12:13:33;27.30;56.40
14577;DHT22;7375;46.072;14.470;2022-07-17T12:16:03;27.30;56.50
14577;DHT22;7375;46.072;14.470;2022-07-17T12:18:54;27.30;56.50
14577;DHT22;7375;46.072;14.470;2022-07-17T12:21:25;27.30;56.60
14577;DHT22;7375;46.072;14.470;2022-07-17T12:23:56;27.30;56.60
14577;DHT22;7375;46.072;14.470;2022-07-17T12:26:23;27.30;56.70
14577;DHT22;7375;46.072;14.470;2022-07-17T12:28:50;27.20;56.60
14577;DHT22;7375;46.072;14.470;2022-07-17T12:31:17;27.20;56.60
14577;DHT22;7375;46.072;14.470;2022-07-17T12:33:49;27.20;56.70
14577;DHT22;7375;46.072;14.470;2022-07-17T12:36:16;27.20;56.80
14577;DHT22;7375;46.072;14.470;2022-07-17T12:38:44;27.20;56.80
14577;DHT22;7375;46.072;14.470;2022-07-17T12:41:11;27.20;56.80
14577;DHT22;7375;46.072;14.470;2022-07-17T12:43:38;27.20;56.80
14577;DHT22;7375;46.072;14.470;2022-07-17T12:46:05;27.10;56.80
14577;DHT22;7375;46.072;14.470;2022-07-17T12:48:32;27.10;56.80
14577;DHT22;7375;46.072;14.470;2022-07-17T12:51:06;27.10;56.90
14577;DHT22;7375;46.072;14.470;2022-07-17T12:53:33;27.10;56.90
14577;DHT22;7375;46.072;14.470;2022-07-17T12:56:02;27.10;57.00
14577;DHT22;7375;46.072;14.470;2022-07-17T12:58:29;27.10;57.00
14577;DHT22;7375;46.072;14.470;2022-07-17T13:00:56;27.10;57.00
14577;DHT22;7375;46.072;14.470;2022-07-17T13:03:23;27.10;57.10
14577;DHT22;7375;46.072;14.470;2022-07-17T13:05:52;27.10;57.10
14577;DHT22;7375;46.072;14.470;2022-07-17T13:08:19;27.00;57.00
14577;DHT22;7375;46.072;14.470;2022-07-17T13:10:46;27.00;57.00
14577;DHT22;7375;46.072;14.470;2022-07-17T13:13:14;27.00;57.10
14577;DHT22;7375;46.072;14.470;2022-07-17T13:15:41;27.00;57.10
14577;DHT22;7375;46.072;14.470;2022-07-17T13:18:08;27.00;57.20
14577;DHT22;7375;46.072;14.470;2022-07-17T13:20:34;27.00;57.20
14577;DHT22;7375;46.072;14.470;2022-07-17T13:23:01;27.00;57.20
14577;DHT22;7375;46.072;14.470;2022-07-17T13:25:28;27.00;57.30
14577;DHT22;7375;46.072;14.470;2022-07-17T13:27:55;27.00;57.30
14577;DHT22;7375;46.072;14.470;2022-07-17T13:30:23;27.00;57.30
14577;DHT22;7375;46.072;14.470;2022-07-17T13:32:50;27.00;57.30
14577;DHT22;7375;46.072;14.470;2022-07-17T13:35:18;27.00;57.40
14577;DHT22;7375;46.072;14.470;2022-07-17T13:37:45;27.00;57.30
14577;DHT22;7375;46.072;14.470;2022-07-17T13:40:12;27.00;57.40
14577;DHT22;7375;46.072;14.470;2022-07-17T13:42:39;26.90;57.30
14577;DHT22;7375;46.072;14.470;2022-07-17T13:45:07;26.90;57.30
14577;DHT22;7375;46.072;14.470;2022-07-17T13:47:35;26.90;57.40
14577;DHT22;7375;46.072;14.470;2022-07-17T13:50:03;27.00;57.40
14577;DHT22;7375;46.072;14.470;2022-07-17T13:52:30;26.90;57.40
14577;DHT22;7375;46.072;14.470;2022-07-17T13:54:57;26.90;57.40
14577;DHT22;7375;46.072;14.470;2022-07-17T13:57:25;26.90;57.40
14577;DHT22;7375;46.072;14.470;2022-07-17T13:59:52;26.90;57.40
14577;DHT22;7375;46.072;14.470;2022-07-17T14:02:19;26.90;57.40
14577;DHT22;7375;46.072;14.470;2022-07-17T14:04:48;26.90;57.40
14577;DHT22;7375;46.072;14.470;2022-07-17T14:07:15;26.90;57.40
14577;DHT22;7375;46.072;14.470;2022-07-17T14:09:42;26.90;57.50
14577;DHT22;7375;46.072;14.470;2022-07-17T14:12:11;26.90;57.50
14577;DHT22;7375;46.072;14.470;2022-07-17T14:14:38;26.90;57.50
14577;DHT22;7375;46.072;14.470;2022-07-17T14:17:08;26.90;57.50
14577;DHT22;7375;46.072;14.470;2022-07-17T14:19:35;26.90;57.50
14577;DHT22;7375;46.072;14.470;2022-07-17T14:22:03;26.90;57.50
14577;DHT22;7375;46.072;14.470;2022-07-17T14:24:30;26.90;57.60
14577;DHT22;7375;46.072;14.470;2022-07-17T14:26:57;26.90;57.50
14577;DHT22;7375;46.072;14.470;2022-07-17T14:29:24;26.80;57.50
14577;DHT22;7375;46.072;14.470;2022-07-17T14:31:51;26.80;57.50
14577;DHT22;7375;46.072;14.470;2022-07-17T14:34:18;26.90;57.60
14577;DHT22;7375;46.072;14.470;2022-07-17T14:36:48;26.80;57.50
14577;DHT22;7375;46.072;14.470;2022-07-17T14:39:17;26.80;57.50
14577;DHT22;7375;46.072;14.470;2022-07-17T14:41:44;26.80;57.50
14577;DHT22;7375;46.072;14.470;2022-07-17T14:44:11;26.80;57.50
14577;DHT22;7375;46.072;14.470;2022-07-17T14:46:39;26.80;57.60
14577;DHT22;7375;46.072;14.470;2022-07-17T14:49:05;26.80;57.60
14577;DHT22;7375;46.072;14.470;2022-07-17T14:51:38;26.80;57.60
14577;DHT22;7375;46.072;14.470;2022-07-17T14:54:05;26.80;57.60
14577;DHT22;7375;46.072;14.470;2022-07-17T14:56:33;26.90;57.70
14577;DHT22;7375;46.072;14.470;2022-07-17T14:59:00;26.80;57.60
14577;DHT22;7375;46.072;14.470;2022-07-17T15:01:27;26.80;57.70
14577;DHT22;7375;46.072;14.470;2022-07-17T15:03:53;26.80;57.70
14577;DHT22;7375;46.072;14.470;2022-07-17T15:06:20;26.80;57.60
14577;DHT22;7375;46.072;14.470;2022-07-17T15:08:47;26.80;57.60
14577;DHT22;7375;46.072;14.470;2022-07-17T15:11:14;26.80;57.60
14577;DHT22;7375;46.072;14.470;2022-07-17T15:13:42;26.80;57.60
14577;DHT22;7375;46.072;14.470;2022-07-17T15:16:09;26.80;58.20
14577;DHT22;7375;46.072;14.470;2022-07-17T15:18:36;26.80;57.70
14577;DHT22;7375;46.072;14.470;2022-07-17T15:21:07;26.80;57.70
14577;DHT22;7375;46.072;14.470;2022-07-17T15:23:33;26.80;57.70
14577;DHT22;7375;46.072;14.470;2022-07-17T15:26:01;26.80;57.70
14577;DHT22;7375;46.072;14.470;2022-07-17T15:28:28;26.80;57.60
14577;DHT22;7375;46.072;14.470;2022-07-17T15:30:59;26.80;57.70
14577;DHT22;7375;46.072;14.470;2022-07-17T15:33:28;26.80;57.60